createdAt,value
2023-03-31T00:01:04.761Z,3.30
2023-03-31T00:03:39.151Z,2.90
2023-03-31T00:06:10.525Z,2.42
2023-03-31T00:08:40.607Z,2.80
2023-03-31T00:11:09.581Z,3.25
2023-03-31T00:13:38.294Z,3.25
2023-03-31T00:16:10.201Z,2.70
2023-03-31T00:18:47.760Z,3.13
2023-03-31T00:21:25.918Z,3.33
2023-03-31T00:23:56.126Z,3.30
2023-03-31T00:26:25.235Z,3.08
2023-03-31T00:28:54.027Z,3.08
2023-03-31T05:28:40.042Z,3.00
2023-03-31T05:31:27.534Z,3.20
2023-03-31T05:34:14.890Z,3.67
2023-03-31T05:37:01.761Z,3.17
2023-03-31T05:39:48.983Z,3.10
2023-03-31T05:42:36.341Z,1.98
2023-03-31T05:45:09.248Z,2.90
2023-03-31T05:47:38.038Z,2.67
2023-03-31T05:50:09.271Z,2.05
2023-03-31T05:52:38.070Z,2.65
2023-03-31T05:55:07.141Z,2.95
2023-03-31T05:57:35.709Z,2.55
2023-03-31T06:00:09.470Z,1.52
2023-03-31T06:02:38.824Z,1.55
2023-03-31T06:05:07.849Z,2.05
2023-03-31T06:07:36.451Z,2.60
2023-03-31T06:10:07.636Z,2.85
2023-03-31T06:12:36.697Z,2.97
2023-03-31T06:15:07.561Z,2.72
2023-03-31T06:17:42.342Z,3.00
2023-03-31T06:20:24.505Z,2.97
2023-03-31T06:22:56.378Z,3.33
2023-03-31T06:25:24.997Z,3.45
2023-03-31T06:27:53.879Z,3.35
2023-03-31T06:30:24.045Z,3.35
2023-03-31T06:32:53.585Z,3.15
2023-03-31T06:35:22.202Z,2.65
2023-03-31T06:37:51.296Z,3.42
2023-03-31T06:40:19.919Z,2.50
2023-03-31T06:42:48.316Z,3.33
2023-03-31T06:45:18.396Z,2.92
2023-03-31T06:47:48.246Z,3.50
2023-03-31T06:50:17.220Z,2.50
2023-03-31T06:52:45.937Z,3.55
2023-03-31T06:55:15.674Z,2.33
2023-03-31T06:57:44.098Z,3.55
2023-03-31T07:00:13.745Z,3.47
2023-03-31T07:02:43.487Z,3.65
2023-03-31T07:05:13.345Z,3.40
2023-03-31T07:07:43.327Z,3.50
2023-03-31T07:10:13.536Z,3.40
2023-03-31T07:12:42.120Z,3.28
2023-03-31T07:15:11.895Z,3.38
2023-03-31T07:17:42.152Z,3.50
2023-03-31T07:20:13.580Z,2.95
2023-03-31T07:22:43.737Z,2.90
2023-03-31T07:25:14.590Z,2.50
2023-03-31T07:27:43.252Z,2.85
2023-03-31T07:30:13.176Z,3.10
2023-03-31T07:32:41.842Z,3.33
2023-03-31T07:35:12.089Z,3.00
2023-03-31T07:37:42.507Z,2.13
2023-03-31T07:40:15.532Z,2.88
2023-03-31T07:42:46.514Z,2.90
2023-03-31T07:45:17.844Z,2.75
2023-03-31T07:47:47.629Z,3.05
2023-03-31T07:50:17.521Z,3.08
2023-03-31T07:52:47.077Z,3.40
2023-03-31T07:55:17.893Z,3.05
2023-03-31T07:57:47.817Z,3.08
2023-03-31T08:00:17.925Z,3.88
2023-03-31T08:02:46.500Z,2.70
2023-03-31T08:05:16.771Z,2.72
2023-03-31T08:07:47.025Z,2.38
2023-03-31T08:10:18.741Z,2.80
2023-03-31T08:12:47.650Z,2.67
2023-03-31T08:15:16.708Z,3.85
2023-03-31T08:17:45.516Z,3.65
2023-03-31T08:20:14.643Z,2.90
2023-03-31T08:22:43.264Z,3.05
2023-03-31T08:25:12.484Z,3.67
2023-03-31T08:27:42.583Z,3.00
2023-03-31T08:30:12.883Z,3.13
2023-03-31T08:32:41.548Z,3.15
2023-03-31T08:35:10.303Z,2.80
2023-03-31T08:37:40.007Z,3.67
2023-03-31T08:40:11.953Z,3.47
2023-03-31T08:42:45.499Z,2.80
2023-03-31T08:45:20.434Z,3.10
2023-03-31T08:47:52.104Z,3.70
2023-03-31T08:50:24.544Z,3.63
2023-03-31T08:53:01.281Z,3.15
2023-03-31T08:55:34.401Z,3.50
2023-03-31T08:58:08.352Z,3.28
2023-03-31T09:00:42.355Z,2.67
2023-03-31T09:03:19.813Z,2.93
2023-03-31T09:06:00.056Z,3.58
2023-03-31T09:08:36.826Z,3.28
2023-03-31T09:11:14.997Z,3.03
2023-03-31T09:13:58.771Z,3.13
2023-03-31T09:16:33.859Z,2.97
2023-03-31T09:19:03.880Z,2.65
2023-03-31T09:21:34.041Z,3.33
2023-03-31T09:24:08.135Z,2.63
2023-03-31T09:26:40.681Z,2.78
2023-03-31T09:29:19.607Z,2.13
2023-03-31T09:31:48.619Z,3.03
2023-03-31T09:34:18.799Z,2.17
2023-03-31T09:36:47.802Z,2.58
2023-03-31T09:39:16.901Z,3.38
2023-03-31T09:41:46.862Z,2.55
2023-03-31T09:44:25.430Z,2.70
2023-03-31T09:46:55.486Z,2.95
2023-03-31T09:49:25.786Z,3.50
2023-03-31T09:52:03.578Z,2.67
2023-03-31T09:54:37.825Z,3.15
2023-03-31T09:57:16.251Z,3.10
2023-03-31T09:59:52.213Z,2.92
2023-03-31T10:02:36.357Z,3.08
2023-03-31T10:05:06.966Z,3.00
2023-03-31T10:07:36.162Z,2.88
2023-03-31T10:10:05.588Z,3.30
2023-03-31T10:12:34.012Z,2.35
2023-03-31T10:15:20.189Z,3.03
2023-03-31T10:20:24.482Z,3.17
2023-03-31T10:22:53.056Z,3.08
2023-03-31T10:25:23.828Z,2.90
2023-03-31T10:27:55.524Z,3.10
2023-03-31T10:30:28.792Z,3.13
2023-03-31T10:32:59.985Z,3.22
2023-03-31T10:35:34.133Z,3.47
2023-03-31T10:38:06.494Z,3.47
2023-03-31T10:40:37.460Z,3.58
2023-03-31T10:43:12.188Z,3.28
2023-03-31T10:48:20.296Z,3.47
2023-03-31T10:50:49.779Z,3.20
2023-03-31T10:53:19.128Z,3.30
2023-03-31T10:55:56.003Z,2.97
2023-03-31T10:58:36.279Z,3.53
2023-03-31T11:01:15.569Z,3.30
2023-03-31T11:03:57.180Z,3.05
2023-03-31T11:06:29.725Z,2.65
2023-03-31T11:09:08.165Z,3.60
2023-03-31T11:11:57.423Z,3.25
2023-03-31T11:14:34.425Z,3.03
2023-03-31T11:17:10.249Z,3.45
2023-03-31T11:19:46.491Z,3.03
2023-03-31T11:22:18.401Z,3.13
2023-03-31T11:25:09.132Z,3.00
2023-03-31T11:27:59.408Z,3.50
2023-03-31T11:30:30.385Z,3.08
2023-03-31T11:33:07.398Z,3.53
2023-03-31T11:35:47.462Z,2.97
2023-03-31T11:38:30.290Z,3.80
2023-03-31T11:41:02.528Z,2.80
2023-03-31T11:43:35.224Z,2.90
2023-03-31T11:46:06.926Z,2.72
2023-03-31T11:48:43.316Z,2.55
2023-03-31T11:51:16.396Z,2.92
2023-03-31T11:53:45.828Z,2.60
2023-03-31T11:56:14.630Z,2.80
2023-03-31T11:58:46.933Z,2.85
2023-03-31T12:01:20.220Z,2.90
2023-03-31T12:03:56.059Z,3.53
2023-03-31T12:06:28.970Z,3.40
2023-03-31T12:09:06.593Z,3.17
2023-03-31T12:11:40.056Z,2.90
2023-03-31T12:14:17.247Z,3.22
2023-03-31T12:16:47.996Z,3.45
2023-03-31T12:19:22.715Z,3.70
2023-03-31T12:21:54.575Z,3.08
2023-03-31T12:24:23.180Z,2.58
2023-03-31T12:27:03.762Z,3.03
2023-03-31T12:29:34.768Z,2.72
2023-03-31T12:32:06.205Z,2.53
2023-03-31T12:34:47.819Z,2.92
2023-03-31T12:37:31.589Z,2.72
2023-03-31T12:40:11.640Z,3.75
2023-03-31T12:43:04.499Z,2.08
2023-03-31T12:45:37.172Z,3.55
2023-03-31T12:48:38.888Z,3.20
2023-03-31T12:51:19.084Z,3.15
2023-03-31T12:54:00.526Z,3.55
2023-03-31T12:56:29.509Z,4.55
2023-03-31T12:59:23.629Z,3.00
2023-03-31T13:02:29.715Z,4.07
2023-03-31T13:04:58.760Z,4.10
2023-03-31T13:07:41.867Z,3.58
2023-03-31T13:10:31.690Z,3.45
2023-03-31T13:13:04.101Z,3.70
2023-03-31T13:15:33.429Z,3.92
2023-03-31T13:18:03.595Z,3.35
2023-03-31T13:20:37.894Z,3.17
2023-03-31T13:23:16.506Z,3.90
2023-03-31T13:25:47.700Z,3.85
2023-03-31T13:28:19.856Z,3.13
2023-03-31T13:30:58.544Z,2.95
2023-03-31T13:33:38.989Z,4.07
2023-03-31T13:36:43.113Z,3.55
2023-03-31T13:39:40.393Z,3.85
2023-03-31T13:42:33.281Z,3.90
2023-03-31T13:45:21.757Z,5.13
2023-03-31T13:48:09.588Z,4.30
2023-03-31T13:50:43.477Z,3.53
2023-03-31T13:53:31.154Z,5.05
2023-03-31T13:56:13.704Z,5.18
2023-03-31T13:59:10.304Z,4.38
2023-03-31T14:01:52.573Z,3.97
2023-03-31T14:04:48.855Z,5.35
2023-03-31T14:07:19.832Z,5.18
2023-03-31T14:09:50.816Z,4.68
2023-03-31T14:12:24.033Z,4.40
2023-03-31T14:14:58.248Z,4.93
2023-03-31T14:17:29.468Z,5.97
2023-03-31T14:20:21.221Z,5.88
2023-03-31T14:22:57.540Z,6.60
2023-03-31T14:25:41.045Z,5.75
2023-03-31T14:28:22.585Z,4.90
2023-03-31T14:30:59.035Z,5.65
2023-03-31T14:33:35.573Z,6.38
2023-03-31T14:36:10.730Z,5.90
2023-03-31T14:38:39.331Z,6.30
2023-03-31T14:41:08.496Z,6.00
2023-03-31T14:43:42.644Z,7.47
2023-03-31T14:46:11.495Z,6.97
2023-03-31T14:48:45.406Z,6.15
2023-03-31T14:51:19.809Z,4.07
2023-03-31T14:53:52.204Z,5.68
2023-03-31T14:56:23.825Z,4.72
2023-03-31T14:58:55.102Z,5.70
2023-03-31T15:01:29.819Z,6.55
2023-03-31T15:03:58.686Z,6.93
2023-03-31T15:06:27.517Z,6.80
2023-03-31T15:08:58.704Z,6.35
2023-03-31T15:11:29.487Z,4.50
2023-03-31T15:14:05.233Z,6.50
2023-03-31T15:16:42.582Z,4.65
2023-03-31T15:19:17.814Z,7.88
2023-03-31T15:24:15.960Z,5.43
2023-03-31T15:26:48.058Z,7.03
2023-03-31T15:29:21.245Z,6.00
2023-03-31T15:31:50.397Z,4.72
2023-03-31T15:34:24.907Z,6.88
2023-03-31T15:36:57.544Z,6.97
2023-03-31T15:39:26.518Z,6.38
2023-03-31T15:41:56.696Z,3.63
2023-03-31T15:44:39.679Z,7.13
2023-03-31T15:47:14.609Z,7.03
2023-03-31T15:49:50.473Z,7.47
2023-03-31T15:52:30.099Z,5.75
2023-03-31T15:54:59.216Z,6.28
2023-03-31T15:57:34.380Z,6.10
2023-03-31T16:00:07.974Z,7.00
2023-03-31T16:02:46.554Z,6.43
2023-03-31T16:05:29.384Z,6.32
2023-03-31T16:08:00.290Z,5.25
2023-03-31T16:10:30.744Z,4.55
2023-03-31T16:13:00.895Z,6.07
2023-03-31T16:15:37.374Z,3.72
2023-03-31T16:18:08.670Z,4.63
2023-03-31T16:20:40.398Z,7.07
2023-03-31T16:23:15.599Z,7.18
2023-03-31T16:25:44.490Z,7.32
2023-03-31T16:28:16.615Z,5.90
2023-03-31T16:30:47.111Z,5.32
2023-03-31T16:33:17.750Z,5.22
2023-03-31T16:35:49.293Z,6.88
2023-03-31T16:38:18.850Z,5.70
2023-03-31T16:40:48.702Z,5.18
2023-03-31T16:43:18.485Z,6.82
2023-03-31T16:45:50.015Z,7.28
2023-03-31T16:48:20.126Z,6.47
2023-03-31T16:50:49.975Z,6.32
2023-03-31T16:53:22.392Z,6.72
2023-03-31T16:55:51.799Z,7.68
2023-03-31T16:58:20.533Z,8.32
2023-03-31T17:00:50.992Z,7.15
2023-03-31T17:03:20.681Z,6.75
2023-03-31T17:05:53.219Z,7.20
2023-03-31T17:08:28.824Z,3.42
2023-03-31T17:11:03.470Z,5.00
2023-03-31T17:13:32.636Z,8.52
2023-03-31T17:18:51.716Z,6.85
2023-03-31T17:21:20.549Z,7.28
2023-03-31T17:23:49.864Z,7.72
2023-03-31T17:26:19.281Z,6.72
2023-03-31T17:28:47.873Z,4.68
2023-03-31T17:31:19.469Z,8.48
2023-03-31T17:33:48.564Z,6.65
2023-03-31T17:36:17.463Z,7.72
2023-03-31T17:38:46.159Z,6.97
2023-03-31T17:41:18.067Z,8.38
2023-03-31T17:43:47.417Z,8.48
2023-03-31T17:46:17.572Z,8.13
2023-03-31T17:48:46.271Z,7.57
2023-03-31T17:51:18.443Z,6.88
2023-03-31T17:53:48.422Z,6.32
2023-03-31T17:56:17.567Z,7.93
2023-03-31T17:58:46.472Z,6.50
2023-03-31T18:01:19.362Z,7.35
2023-03-31T18:03:48.941Z,5.40
2023-03-31T18:06:17.976Z,7.50
2023-03-31T18:08:46.733Z,5.80
2023-03-31T18:11:15.817Z,7.32
2023-03-31T18:13:44.845Z,5.85
2023-03-31T18:16:13.612Z,7.32
2023-03-31T18:18:44.009Z,6.60
2023-03-31T18:21:13.736Z,6.50
2023-03-31T18:23:42.454Z,7.53
2023-03-31T18:26:12.546Z,7.80
2023-03-31T18:28:41.389Z,8.45
2023-03-31T18:31:10.843Z,8.82
2023-03-31T18:33:40.051Z,8.55
2023-03-31T18:36:11.255Z,9.57
2023-03-31T18:38:39.981Z,9.40
2023-03-31T18:41:08.490Z,9.18
2023-03-31T18:43:37.209Z,9.93
2023-03-31T18:46:05.918Z,8.70
2023-03-31T18:48:35.027Z,8.43
2023-03-31T18:51:05.373Z,8.73
2023-03-31T18:53:35.520Z,9.63
2023-03-31T18:56:04.164Z,8.98
2023-03-31T18:58:33.204Z,9.02
2023-03-31T19:01:02.545Z,8.88
2023-03-31T19:03:31.441Z,8.43
2023-03-31T19:06:10.184Z,9.63
2023-03-31T19:08:41.005Z,9.07
2023-03-31T19:11:10.994Z,9.65
2023-03-31T19:13:40.242Z,9.15
2023-03-31T19:16:08.806Z,9.38
2023-03-31T19:18:37.659Z,9.32
2023-03-31T19:21:06.788Z,9.23
2023-03-31T19:23:35.714Z,9.73
2023-03-31T19:26:05.721Z,9.45
2023-03-31T19:28:34.052Z,9.55
2023-03-31T19:31:04.761Z,10.70
2023-03-31T19:33:33.397Z,10.23
2023-03-31T19:36:02.215Z,9.02
2023-03-31T19:38:32.685Z,9.18
2023-03-31T19:41:01.404Z,10.07
2023-03-31T19:43:31.698Z,8.77
2023-03-31T19:46:00.972Z,9.73
2023-03-31T19:48:33.581Z,10.40
2023-03-31T19:51:04.316Z,10.10
2023-03-31T19:53:33.445Z,10.00
2023-03-31T19:56:04.133Z,8.82
2023-03-31T19:58:36.055Z,8.73
2023-03-31T20:01:06.585Z,9.13
2023-03-31T20:03:35.287Z,9.43
2023-03-31T20:06:07.104Z,8.88
2023-03-31T20:08:35.817Z,9.10
2023-03-31T20:11:06.864Z,7.45
2023-03-31T20:13:37.103Z,7.85
2023-03-31T20:16:08.285Z,8.30
2023-03-31T20:18:38.089Z,8.57
2023-03-31T20:21:08.149Z,7.88
2023-03-31T20:23:38.082Z,8.65
2023-03-31T20:26:09.120Z,8.18
2023-03-31T20:28:40.174Z,8.13
2023-03-31T20:31:09.120Z,7.50
2023-03-31T20:33:37.772Z,6.82
2023-03-31T20:36:07.935Z,7.55
2023-03-31T20:38:38.156Z,7.85
2023-03-31T20:41:07.717Z,7.72
2023-03-31T20:43:36.883Z,8.00
2023-03-31T20:46:08.773Z,7.90
2023-03-31T20:48:38.827Z,7.18
2023-03-31T20:51:07.743Z,7.30
2023-03-31T20:53:42.080Z,8.05
2023-03-31T20:58:41.760Z,7.63
2023-03-31T21:01:16.523Z,8.00
2023-03-31T21:03:45.722Z,8.02
2023-03-31T21:06:16.212Z,7.70
2023-03-31T21:08:46.785Z,8.63
2023-03-31T21:11:15.770Z,9.55
2023-03-31T21:13:46.406Z,9.23
2023-03-31T21:16:17.344Z,9.70
2023-03-31T21:18:45.983Z,9.50
2023-03-31T21:21:15.713Z,8.60
2023-03-31T21:23:44.249Z,9.50
2023-03-31T21:26:15.778Z,8.48
2023-03-31T21:28:45.701Z,9.13
2023-03-31T21:31:18.273Z,8.90
2023-03-31T21:33:48.062Z,8.30
2023-03-31T21:36:17.953Z,8.55
2023-03-31T21:38:46.882Z,9.82
2023-03-31T21:41:17.558Z,8.30
2023-03-31T21:43:46.385Z,9.10
2023-03-31T21:46:18.987Z,9.10
2023-03-31T21:48:48.985Z,9.55
2023-03-31T21:51:20.310Z,8.70
2023-03-31T21:53:48.938Z,8.63
2023-03-31T21:56:17.747Z,9.00
2023-03-31T21:58:46.535Z,9.38
2023-03-31T22:01:15.243Z,9.07
2023-03-31T22:03:48.897Z,9.10
2023-03-31T22:06:17.493Z,9.93
2023-03-31T22:08:46.059Z,10.00
2023-03-31T22:11:15.001Z,9.45
2023-03-31T22:13:43.638Z,10.07
2023-03-31T22:16:18.044Z,9.52
2023-03-31T22:18:50.433Z,11.10
2023-03-31T22:21:20.789Z,9.85
2023-03-31T22:23:49.185Z,8.82
2023-03-31T22:26:18.070Z,9.48
2023-03-31T22:28:46.460Z,8.23
2023-03-31T22:31:15.459Z,8.63
2023-03-31T22:33:43.951Z,9.40
2023-03-31T22:36:14.210Z,8.45
2023-03-31T22:38:45.886Z,8.23
2023-03-31T22:41:14.394Z,7.90
2023-03-31T22:43:46.178Z,8.50
2023-03-31T22:46:16.183Z,8.70
2023-03-31T22:48:44.693Z,8.07
2023-03-31T22:51:14.775Z,8.90
2023-03-31T22:53:43.150Z,7.70
2023-03-31T22:56:13.286Z,8.50
2023-03-31T22:58:41.701Z,9.32
2023-03-31T23:01:15.768Z,8.70
2023-03-31T23:03:45.023Z,8.90
2023-03-31T23:06:15.710Z,8.68
2023-03-31T23:08:45.447Z,8.57
2023-03-31T23:11:14.393Z,8.60
2023-03-31T23:13:43.011Z,8.60
2023-03-31T23:16:15.781Z,9.15
2023-03-31T23:18:47.032Z,7.85
2023-03-31T23:21:20.416Z,8.35
2023-03-31T23:23:50.243Z,8.43
2023-03-31T23:26:20.240Z,7.70
2023-03-31T23:28:49.886Z,8.10
2023-03-31T23:31:18.833Z,7.93
2023-03-31T23:33:48.360Z,8.85
2023-03-31T23:36:21.208Z,8.90
2023-03-31T23:38:51.069Z,8.57
2023-03-31T23:41:20.184Z,8.55
2023-03-31T23:43:48.863Z,8.35
2023-03-31T23:46:17.345Z,8.57
2023-03-31T23:48:45.876Z,8.50
2023-03-31T23:51:14.710Z,8.05
2023-03-31T23:53:44.755Z,8.15
2023-03-31T23:56:14.221Z,8.75
2023-03-31T23:58:45.281Z,8.50
